createdAt,value
2019-03-01T00:00:14.476Z,49.08
2019-03-01T00:02:42.808Z,48.05
2019-03-01T00:05:23.156Z,44.48
2019-03-01T00:08:06.829Z,49.30
2019-03-01T00:10:54.923Z,50.40
2019-03-01T00:13:26.520Z,51.05
2019-03-01T00:16:00.578Z,49.63
2019-03-01T00:18:32.116Z,57.95
2019-03-01T00:21:09.149Z,53.38
2019-03-01T00:24:03.109Z,50.92
2019-03-01T00:26:34.604Z,51.90
2019-03-01T00:29:06.123Z,50.85
2019-03-01T00:31:56.577Z,53.28
2019-03-01T00:34:30.662Z,46.37
2019-03-01T00:37:19.649Z,50.38
2019-03-01T00:39:54.001Z,53.58
2019-03-01T00:42:54.326Z,52.98
2019-03-01T00:45:22.600Z,56.85
2019-03-01T00:47:50.853Z,56.73
2019-03-01T00:50:19.097Z,55.52
2019-03-01T00:52:47.347Z,52.62
2019-03-01T00:55:15.586Z,51.58
2019-03-01T00:57:43.865Z,53.90
2019-03-01T01:00:18.138Z,52.93
2019-03-01T01:02:46.406Z,54.23
2019-03-01T01:05:14.638Z,57.75
2019-03-01T01:07:42.894Z,62.25
2019-03-01T01:10:11.160Z,56.48
2019-03-01T01:12:39.438Z,58.45
2019-03-01T01:15:08.274Z,55.50
2019-03-01T01:17:36.515Z,61.30
2019-03-01T01:20:09.402Z,54.65
2019-03-01T01:22:37.650Z,61.70
2019-03-01T01:25:05.889Z,59.60
2019-03-01T01:27:34.174Z,57.95
2019-03-01T01:30:02.410Z,56.50
2019-03-01T01:32:30.667Z,52.33
2019-03-01T01:34:58.906Z,55.67
2019-03-01T01:37:27.153Z,69.85
2019-03-01T01:39:55.474Z,64.72
2019-03-01T01:42:23.744Z,57.85
2019-03-01T01:44:52.015Z,68.12
2019-03-01T01:47:20.291Z,70.42
2019-03-01T01:49:48.582Z,59.48
2019-03-01T01:52:16.832Z,59.23
2019-03-01T01:54:45.118Z,60.78
2019-03-01T01:57:13.390Z,68.83
2019-03-01T01:59:41.657Z,65.50
2019-03-01T02:02:09.916Z,60.35
2019-03-01T02:04:38.184Z,68.07
2019-03-01T02:07:06.426Z,71.55
2019-03-01T02:09:34.818Z,71.15
2019-03-01T02:12:03.076Z,71.80
2019-03-01T02:14:31.336Z,73.33
2019-03-01T02:16:59.594Z,77.87
2019-03-01T02:19:27.846Z,67.60
2019-03-01T02:21:56.092Z,72.90
2019-03-01T02:24:24.342Z,81.00
2019-03-01T02:26:55.909Z,71.40
2019-03-01T02:29:24.190Z,69.87
2019-03-01T02:31:53.880Z,69.35
2019-03-01T02:34:22.147Z,73.12
2019-03-01T02:36:50.395Z,63.52
2019-03-01T02:39:18.656Z,65.40
2019-03-01T02:41:46.922Z,68.28
2019-03-01T02:44:15.275Z,57.15
2019-03-01T02:46:43.602Z,56.95
2019-03-01T02:49:11.838Z,76.47
2019-03-01T02:51:40.106Z,69.70
2019-03-01T02:54:08.363Z,63.17
2019-03-01T02:56:36.703Z,74.37
2019-03-01T02:59:04.951Z,74.05
2019-03-01T03:01:33.194Z,63.20
2019-03-01T03:04:01.533Z,69.42
2019-03-01T03:06:37.645Z,81.80
2019-03-01T03:09:07.691Z,79.05
2019-03-01T03:11:35.956Z,71.77
2019-03-01T03:14:04.198Z,78.02
2019-03-01T03:16:32.626Z,79.65
2019-03-01T03:19:00.949Z,80.75
2019-03-01T03:21:29.185Z,68.67
2019-03-01T03:23:57.459Z,75.47
2019-03-01T03:26:25.774Z,83.65
2019-03-01T03:28:54.019Z,78.00
2019-03-01T03:31:22.289Z,73.78
2019-03-01T03:33:50.606Z,77.78
2019-03-01T03:36:18.957Z,79.03
2019-03-01T03:38:47.242Z,90.32
2019-03-01T03:41:15.500Z,87.17
2019-03-01T03:46:16.203Z,77.20
2019-03-01T03:48:44.509Z,79.45
2019-03-01T03:51:12.772Z,92.47
2019-03-01T03:53:41.012Z,104.07
2019-03-01T03:56:09.288Z,101.40
2019-03-01T03:58:37.528Z,117.67
2019-03-01T04:01:05.899Z,103.62
2019-03-01T04:03:34.162Z,107.92
2019-03-01T04:06:02.468Z,100.47
2019-03-01T04:08:30.756Z,104.75
2019-03-01T04:10:59.070Z,97.20
2019-03-01T04:13:27.403Z,111.65
2019-03-01T04:15:55.750Z,99.17
2019-03-01T04:18:24.042Z,101.20
2019-03-01T04:20:52.324Z,100.72
2019-03-01T04:23:20.662Z,95.17
2019-03-01T04:25:48.925Z,98.78
2019-03-01T04:28:17.185Z,100.95
2019-03-01T04:30:45.442Z,101.07
2019-03-01T04:33:14.424Z,88.92
2019-03-01T04:35:42.765Z,94.15
2019-03-01T04:38:11.174Z,86.22
2019-03-01T04:40:39.435Z,90.65
2019-03-01T04:43:07.667Z,81.80
2019-03-01T04:45:35.919Z,84.65
2019-03-01T04:48:04.182Z,60.88
2019-03-01T04:50:32.426Z,69.97
2019-03-01T04:53:00.670Z,77.62
2019-03-01T04:55:28.945Z,69.85
2019-03-01T04:57:57.205Z,57.70
2019-03-01T05:00:25.618Z,56.92
2019-03-01T05:02:53.899Z,52.20
2019-03-01T05:05:22.183Z,45.03
2019-03-01T05:07:50.437Z,55.90
2019-03-01T05:10:18.699Z,50.85
2019-03-01T05:12:46.985Z,52.88
2019-03-01T05:15:24.983Z,51.85
2019-03-01T05:17:53.230Z,52.60
2019-03-01T05:20:21.479Z,57.03
2019-03-01T05:22:49.716Z,56.42
2019-03-01T05:25:17.955Z,56.70
2019-03-01T05:27:46.210Z,52.03
2019-03-01T05:30:17.076Z,44.48
2019-03-01T05:32:45.408Z,53.15
2019-03-01T05:35:13.645Z,52.95
2019-03-01T05:37:41.920Z,49.05
2019-03-01T05:40:12.204Z,53.25
2019-03-01T05:42:40.442Z,46.90
2019-03-01T05:45:14.537Z,50.90
2019-03-01T05:47:42.798Z,48.87
2019-03-01T05:50:15.003Z,54.45
2019-03-01T05:52:43.277Z,46.90
2019-03-01T05:55:12.149Z,52.65
2019-03-01T05:58:16.952Z,46.30
2019-03-01T06:00:45.815Z,43.23
2019-03-01T06:03:39.765Z,42.85
2019-03-01T06:06:09.761Z,50.00
2019-03-01T06:08:50.245Z,41.40
2019-03-01T06:11:21.765Z,39.33
2019-03-01T06:14:14.429Z,36.73
2019-03-01T06:16:48.633Z,32.67
2019-03-01T06:19:20.162Z,39.15
2019-03-01T06:22:25.915Z,31.57
2019-03-01T06:25:03.400Z,31.90
2019-03-01T06:27:49.802Z,34.25
2019-03-01T06:30:36.398Z,33.10
2019-03-01T06:33:10.728Z,27.98
2019-03-01T06:35:57.302Z,34.35
2019-03-01T06:38:33.074Z,29.42
2019-03-01T06:41:28.010Z,29.82
2019-03-01T06:44:02.536Z,30.30
2019-03-01T06:46:53.682Z,28.77
2019-03-01T06:49:23.577Z,29.80
2019-03-01T06:51:51.841Z,30.35
2019-03-01T06:54:20.089Z,28.85
2019-03-01T06:56:48.346Z,30.82
2019-03-01T06:59:16.586Z,21.07
2019-03-01T07:01:45.294Z,14.43
2019-03-01T07:04:14.510Z,14.75
2019-03-01T07:06:42.761Z,11.90
2019-03-01T07:09:11.034Z,11.28
2019-03-01T07:11:39.266Z,11.22
2019-03-01T07:14:07.521Z,9.53
2019-03-01T07:16:35.759Z,8.83
2019-03-01T07:19:03.998Z,10.40
2019-03-01T07:21:32.263Z,8.95
2019-03-01T07:24:00.546Z,7.80
2019-03-01T07:26:28.876Z,9.50
2019-03-01T07:28:57.129Z,9.80
2019-03-01T07:31:25.368Z,9.38
2019-03-01T07:33:53.701Z,11.05
2019-03-01T07:36:21.963Z,10.48
2019-03-01T07:38:50.260Z,11.45
2019-03-01T07:41:18.539Z,9.60
2019-03-01T07:43:46.805Z,12.63
2019-03-01T07:46:15.133Z,11.57
2019-03-01T07:48:43.399Z,8.38
2019-03-01T07:51:11.775Z,8.45
2019-03-01T07:53:41.986Z,11.95
2019-03-01T07:56:09.996Z,9.85
2019-03-01T07:58:38.254Z,11.95
2019-03-01T08:01:06.529Z,13.28
2019-03-01T08:03:34.774Z,10.70
2019-03-01T08:06:03.032Z,13.62
2019-03-01T08:08:31.270Z,19.05
2019-03-01T08:11:00.132Z,14.70
2019-03-01T08:13:28.578Z,14.00
2019-03-01T08:15:56.827Z,12.68
2019-03-01T08:18:25.122Z,18.37
2019-03-01T08:20:53.355Z,14.60
2019-03-01T08:23:21.698Z,13.90
2019-03-01T08:25:49.951Z,9.03
2019-03-01T08:28:18.411Z,8.65
2019-03-01T08:30:48.169Z,10.03
2019-03-01T08:33:16.406Z,8.60
2019-03-01T08:35:44.678Z,10.43
2019-03-01T08:38:12.931Z,10.35
2019-03-01T08:40:41.265Z,11.50
2019-03-01T08:43:13.065Z,13.68
2019-03-01T08:45:39.479Z,9.58
2019-03-01T08:48:07.733Z,11.12
2019-03-01T08:50:35.975Z,14.98
2019-03-01T08:53:04.237Z,12.15
2019-03-01T08:55:35.569Z,12.68
2019-03-01T08:58:06.692Z,11.90
2019-03-01T09:00:38.611Z,13.38
2019-03-01T09:03:30.813Z,14.35
2019-03-01T09:05:59.063Z,19.87
2019-03-01T09:08:27.364Z,13.10
2019-03-01T09:10:55.703Z,13.72
2019-03-01T09:13:23.937Z,13.40
2019-03-01T09:15:52.183Z,12.88
2019-03-01T09:18:20.426Z,13.22
2019-03-01T09:20:48.681Z,14.63
2019-03-01T09:23:24.254Z,16.50
2019-03-01T09:25:47.024Z,14.03
2019-03-01T09:28:15.351Z,16.50
2019-03-01T09:30:44.325Z,20.88
2019-03-01T09:33:12.722Z,15.40
2019-03-01T09:35:45.367Z,13.75
2019-03-01T09:38:13.620Z,13.90
2019-03-01T09:40:41.903Z,22.22
2019-03-01T09:43:10.153Z,18.62
2019-03-01T09:45:38.507Z,20.85
2019-03-01T09:48:08.796Z,23.38
2019-03-01T09:50:38.280Z,22.37
2019-03-01T09:53:06.746Z,18.62
2019-03-01T09:55:37.690Z,21.75
2019-03-01T09:58:04.966Z,22.55
2019-03-01T10:00:42.408Z,23.30
2019-03-01T10:03:10.680Z,20.40
2019-03-01T10:05:38.934Z,21.87
2019-03-01T10:08:07.793Z,19.62
2019-03-01T10:10:36.117Z,26.37
2019-03-01T10:13:04.371Z,22.95
2019-03-01T10:15:32.610Z,23.52
2019-03-01T10:18:00.850Z,25.62
2019-03-01T10:20:29.102Z,18.82
2019-03-01T10:22:57.365Z,17.73
2019-03-01T10:25:25.637Z,19.25
2019-03-01T10:27:53.890Z,19.15
2019-03-01T10:30:26.206Z,18.80
2019-03-01T10:32:54.455Z,14.65
2019-03-01T10:35:22.705Z,15.15
2019-03-01T10:37:50.973Z,15.55
2019-03-01T10:40:49.375Z,16.90
2019-03-01T10:43:17.633Z,13.00
2019-03-01T10:45:45.870Z,14.50
2019-03-01T10:48:14.141Z,9.98
2019-03-01T10:50:42.373Z,17.30
2019-03-01T10:53:10.648Z,19.12
2019-03-01T10:55:38.938Z,13.90
2019-03-01T10:58:07.185Z,13.03
2019-03-01T11:00:35.450Z,14.50
2019-03-01T11:03:03.690Z,14.68
2019-03-01T11:05:31.930Z,12.68
2019-03-01T11:08:00.197Z,12.13
2019-03-01T11:10:30.809Z,12.70
2019-03-01T11:12:59.073Z,10.00
2019-03-01T11:15:27.304Z,16.65
2019-03-01T11:17:55.552Z,15.68
2019-03-01T11:20:24.176Z,11.90
2019-03-01T11:22:52.422Z,14.83
2019-03-01T11:25:27.247Z,12.88
2019-03-01T11:27:55.650Z,13.60
2019-03-01T11:30:26.613Z,17.87
2019-03-01T11:32:54.913Z,11.38
2019-03-01T11:35:23.210Z,8.25
2019-03-01T11:37:51.472Z,16.50
2019-03-01T11:40:25.469Z,12.63
2019-03-01T11:42:53.797Z,12.65
2019-03-01T11:45:22.043Z,18.57
2019-03-01T11:47:50.313Z,15.83
2019-03-01T11:50:26.004Z,12.95
2019-03-01T11:52:54.343Z,11.90
2019-03-01T11:55:22.611Z,14.75
2019-03-01T11:57:50.891Z,11.75
2019-03-01T12:00:23.867Z,17.60
2019-03-01T12:02:52.163Z,14.83
2019-03-01T12:05:20.764Z,11.75
2019-03-01T12:07:49.094Z,16.12
2019-03-01T12:10:31.468Z,19.25
2019-03-01T12:12:59.830Z,15.43
2019-03-01T12:15:28.134Z,20.65
2019-03-01T12:17:56.404Z,13.95
2019-03-01T12:20:27.169Z,16.40
2019-03-01T12:22:55.414Z,14.53
2019-03-01T12:25:23.673Z,18.65
2019-03-01T12:27:51.924Z,17.50
2019-03-01T12:30:25.751Z,16.60
2019-03-01T12:32:54.098Z,13.30
2019-03-01T12:35:22.423Z,15.38
2019-03-01T12:37:50.704Z,13.95
2019-03-01T12:40:27.014Z,16.80
2019-03-01T12:42:55.283Z,16.70
2019-03-01T12:45:23.627Z,19.98
2019-03-01T12:47:51.869Z,16.30
2019-03-01T12:50:20.135Z,18.82
2019-03-01T12:52:49.361Z,14.60
2019-03-01T12:55:20.416Z,13.88
2019-03-01T12:57:48.690Z,16.57
2019-03-01T13:00:31.992Z,15.43
2019-03-01T13:03:00.287Z,16.27
2019-03-01T13:05:30.293Z,23.27
2019-03-01T13:07:58.971Z,23.90
2019-03-01T13:10:32.370Z,18.32
2019-03-01T13:13:02.093Z,15.80
2019-03-01T13:15:30.621Z,15.38
2019-03-01T13:17:58.913Z,18.50
2019-03-01T13:20:27.186Z,22.32
2019-03-01T13:22:55.469Z,22.48
2019-03-01T13:25:25.904Z,19.98
2019-03-01T13:27:53.776Z,18.42
2019-03-01T13:30:43.093Z,17.32
2019-03-01T13:33:11.352Z,14.80
2019-03-01T13:35:39.650Z,15.28
2019-03-01T13:38:07.932Z,15.32
2019-03-01T13:40:36.199Z,16.02
2019-03-01T13:43:04.525Z,22.52
2019-03-01T13:45:32.804Z,22.52
2019-03-01T13:48:03.315Z,22.32
2019-03-01T13:50:31.729Z,22.25
2019-03-01T13:52:59.986Z,17.10
2019-03-01T13:55:28.279Z,16.97
2019-03-01T13:57:56.585Z,18.90
2019-03-01T14:00:24.913Z,18.48
2019-03-01T14:02:53.185Z,21.00
2019-03-01T14:05:21.438Z,18.15
2019-03-01T14:07:55.572Z,14.68
2019-03-01T14:10:25.718Z,16.00
2019-03-01T14:12:54.052Z,15.70
2019-03-01T14:15:22.384Z,18.57
2019-03-01T14:17:50.736Z,20.77
2019-03-01T14:20:21.028Z,18.95
2019-03-01T14:22:49.611Z,16.02
2019-03-01T14:25:18.204Z,17.70
2019-03-01T14:27:46.566Z,19.07
2019-03-01T14:30:25.348Z,22.73
2019-03-01T14:32:57.038Z,15.48
2019-03-01T14:35:26.872Z,19.60
2019-03-01T14:37:55.144Z,18.30
2019-03-01T14:40:23.835Z,20.90
2019-03-01T14:42:52.175Z,20.05
2019-03-01T14:45:34.170Z,19.98
2019-03-01T14:48:05.167Z,17.05
2019-03-01T14:50:33.800Z,18.07
2019-03-01T14:53:02.483Z,15.03
2019-03-01T14:55:37.089Z,17.07
2019-03-01T14:58:22.517Z,21.85
2019-03-01T15:00:54.801Z,18.12
2019-03-01T15:03:36.660Z,17.23
2019-03-01T15:06:05.740Z,20.02
2019-03-01T15:08:34.245Z,21.95
2019-03-01T15:11:09.142Z,15.38
2019-03-01T15:13:37.533Z,15.75
2019-03-01T15:16:06.233Z,19.57
2019-03-01T15:18:34.838Z,20.40
2019-03-01T15:21:03.167Z,18.52
2019-03-01T15:23:31.588Z,23.27
2019-03-01T15:25:59.835Z,19.37
2019-03-01T15:28:28.100Z,17.20
2019-03-01T15:30:57.251Z,24.12
2019-03-01T15:33:25.701Z,20.15
2019-03-01T15:35:54.033Z,14.05
2019-03-01T15:38:23.940Z,19.75
2019-03-01T15:40:52.273Z,16.45
2019-03-01T15:43:20.505Z,21.48
2019-03-01T15:45:48.754Z,20.88
2019-03-01T15:48:16.994Z,19.57
2019-03-01T15:50:45.242Z,18.60
2019-03-01T15:53:14.479Z,17.05
2019-03-01T15:55:42.789Z,13.05
2019-03-01T15:58:11.129Z,16.32
2019-03-01T16:00:39.407Z,14.05
2019-03-01T16:03:07.660Z,22.05
2019-03-01T16:05:37.347Z,16.52
2019-03-01T16:08:08.477Z,20.08
2019-03-01T16:10:36.873Z,21.50
2019-03-01T16:13:08.395Z,23.35
2019-03-01T16:15:38.946Z,20.97
2019-03-01T16:18:05.237Z,21.50
2019-03-01T16:20:33.508Z,20.75
2019-03-01T16:23:01.824Z,14.65
2019-03-01T16:25:30.065Z,17.70
2019-03-01T16:27:58.309Z,23.10
2019-03-01T16:30:26.573Z,23.30
2019-03-01T16:32:54.825Z,15.03
2019-03-01T16:35:23.973Z,16.90
2019-03-01T16:40:30.995Z,17.30
2019-03-01T16:42:59.441Z,20.17
2019-03-01T16:45:27.774Z,18.90
2019-03-01T16:47:55.997Z,17.87
2019-03-01T16:50:24.242Z,15.98
2019-03-01T16:52:52.496Z,15.18
2019-03-01T16:55:24.411Z,20.08
2019-03-01T16:58:06.021Z,19.98
2019-03-01T17:00:24.562Z,20.08
2019-03-01T17:03:16.540Z,18.98
2019-03-01T17:05:42.781Z,21.75
2019-03-01T17:08:11.022Z,18.80
2019-03-01T17:10:39.258Z,22.07
2019-03-01T17:13:07.503Z,24.75
2019-03-01T17:15:35.756Z,21.52
2019-03-01T17:18:04.016Z,21.93
2019-03-01T17:20:37.477Z,28.62
2019-03-01T17:23:03.111Z,20.48
2019-03-01T17:25:32.069Z,23.62
2019-03-01T17:28:00.324Z,25.72
2019-03-01T17:30:28.577Z,26.30
2019-03-01T17:32:56.865Z,21.52
2019-03-01T17:35:25.162Z,25.30
2019-03-01T17:37:53.402Z,23.47
2019-03-01T17:40:21.661Z,20.90
2019-03-01T17:42:49.894Z,23.83
2019-03-01T17:45:21.193Z,24.47
2019-03-01T17:47:49.473Z,21.62
2019-03-01T17:50:17.701Z,24.98
2019-03-01T17:52:45.972Z,23.98
2019-03-01T17:55:21.937Z,20.50
2019-03-01T17:57:50.326Z,26.23
2019-03-01T18:00:27.946Z,24.07
2019-03-01T18:02:56.195Z,20.52
2019-03-01T18:05:24.424Z,23.12
2019-03-01T18:07:52.667Z,22.98
2019-03-01T18:10:20.923Z,19.17
2019-03-01T18:12:57.704Z,20.00
2019-03-01T18:15:26.126Z,18.90
2019-03-01T18:17:54.376Z,18.02
2019-03-01T18:20:22.649Z,24.35
2019-03-01T18:22:51.101Z,18.42
2019-03-01T18:25:22.749Z,21.07
2019-03-01T18:29:08.255Z,21.27
2019-03-01T18:33:26.266Z,18.80
2019-03-01T18:36:08.195Z,18.42
2019-03-01T18:38:39.457Z,23.05
2019-03-01T18:41:07.824Z,30.72
2019-03-01T18:43:36.181Z,20.68
2019-03-01T18:46:04.552Z,25.60
2019-03-01T18:48:33.630Z,18.92
2019-03-01T18:51:03.537Z,17.00
2019-03-01T18:53:32.003Z,20.40
2019-03-01T18:56:00.272Z,26.23
2019-03-01T18:58:28.612Z,21.20
2019-03-01T19:00:56.947Z,21.62
2019-03-01T19:03:25.213Z,22.25
2019-03-01T19:05:53.443Z,22.95
2019-03-01T19:08:21.682Z,19.55
2019-03-01T19:10:54.142Z,25.27
2019-03-01T19:13:20.686Z,17.65
2019-03-01T19:15:54.337Z,23.32
2019-03-01T19:18:21.609Z,20.08
2019-03-01T19:20:53.618Z,19.90
2019-03-01T19:23:25.894Z,24.40
2019-03-01T19:28:51.153Z,22.20
2019-03-01T19:31:21.659Z,20.50
2019-03-01T19:33:49.360Z,22.77
2019-03-01T19:36:17.701Z,20.25
2019-03-01T19:38:46.514Z,23.55
2019-03-01T19:41:14.840Z,14.68
2019-03-01T19:43:45.661Z,24.45
2019-03-01T19:46:15.646Z,20.55
2019-03-01T19:48:43.018Z,21.05
2019-03-01T19:51:11.277Z,22.22
2019-03-01T19:53:39.519Z,22.02
2019-03-01T19:56:07.766Z,27.98
2019-03-01T19:58:36.030Z,21.00
2019-03-01T20:01:04.288Z,23.83
2019-03-01T20:03:32.587Z,23.98
2019-03-01T20:06:00.938Z,18.40
2019-03-01T20:08:29.797Z,23.75
2019-03-01T20:10:59.018Z,19.25
2019-03-01T20:13:27.247Z,19.67
2019-03-01T20:15:55.507Z,24.90
2019-03-01T20:18:23.742Z,19.92
2019-03-01T20:20:52.010Z,17.00
2019-03-01T20:23:20.262Z,23.98
2019-03-01T20:25:50.950Z,16.55
2019-03-01T20:28:18.522Z,24.47
2019-03-01T20:30:46.761Z,23.27
2019-03-01T20:33:15.065Z,21.97
2019-03-01T20:35:43.327Z,22.45
2019-03-01T20:38:11.634Z,25.92
2019-03-01T20:40:39.887Z,27.13
2019-03-01T20:43:08.157Z,25.27
2019-03-01T20:45:38.242Z,22.35
2019-03-01T20:48:06.510Z,18.73
2019-03-01T20:50:36.495Z,23.18
2019-03-01T20:53:04.998Z,23.87
2019-03-01T20:55:36.702Z,22.77
2019-03-01T20:58:04.273Z,22.27
2019-03-01T21:00:32.713Z,27.42
2019-03-01T21:03:00.978Z,21.57
2019-03-01T21:05:30.547Z,24.30
2019-03-01T21:07:59.045Z,23.57
2019-03-01T21:10:32.193Z,19.07
2019-03-01T21:13:00.422Z,21.50
2019-03-01T21:15:28.689Z,23.10
2019-03-01T21:17:58.528Z,20.37
2019-03-01T21:20:26.977Z,20.30
2019-03-01T21:22:55.241Z,19.10
2019-03-01T21:25:24.422Z,21.55
2019-03-01T21:27:52.668Z,21.30
2019-03-01T21:30:32.021Z,22.82
2019-03-01T21:33:00.282Z,24.67
2019-03-01T21:35:28.536Z,16.95
2019-03-01T21:37:56.958Z,17.60
2019-03-01T21:40:25.216Z,26.27
2019-03-01T21:42:57.311Z,23.65
2019-03-01T21:45:25.146Z,17.30
2019-03-01T21:47:53.395Z,21.12
2019-03-01T21:50:21.710Z,27.58
2019-03-01T21:52:49.968Z,25.48
2019-03-01T21:55:20.619Z,20.40
2019-03-01T21:57:48.864Z,20.77
2019-03-01T22:00:41.217Z,24.52
2019-03-01T22:03:09.459Z,24.10
2019-03-01T22:05:37.712Z,21.55
2019-03-01T22:08:05.983Z,17.23
2019-03-01T22:10:35.674Z,19.95
2019-03-01T22:13:04.272Z,15.10
2019-03-01T22:15:32.518Z,19.75
2019-03-01T22:18:00.769Z,19.42
2019-03-01T22:20:29.029Z,22.65
2019-03-01T22:22:57.281Z,20.85
2019-03-01T22:25:25.522Z,21.70
2019-03-01T22:27:53.797Z,15.95
2019-03-01T22:30:27.815Z,18.85
2019-03-01T22:32:56.049Z,11.85
2019-03-01T22:35:24.316Z,17.23
2019-03-01T22:37:52.542Z,14.98
2019-03-01T22:40:23.883Z,17.50
2019-03-01T22:42:51.108Z,17.70
2019-03-01T22:45:19.601Z,14.70
2019-03-01T22:47:47.853Z,17.02
2019-03-01T22:50:17.265Z,17.50
2019-03-01T22:52:45.499Z,15.70
2019-03-01T22:55:18.650Z,27.22
2019-03-01T22:57:46.914Z,14.53
2019-03-01T23:00:48.137Z,18.10
2019-03-01T23:03:19.016Z,17.98
2019-03-01T23:05:47.210Z,16.60
2019-03-01T23:08:15.478Z,18.62
2019-03-01T23:10:43.740Z,18.27
2019-03-01T23:13:11.984Z,17.05
2019-03-01T23:15:43.314Z,12.53
2019-03-01T23:18:10.202Z,13.15
2019-03-01T23:20:38.449Z,19.17
2019-03-01T23:23:06.685Z,16.55
2019-03-01T23:25:34.949Z,17.73
2019-03-01T23:28:04.020Z,21.12
2019-03-01T23:30:33.185Z,16.90
2019-03-01T23:33:01.418Z,20.15
2019-03-01T23:35:29.681Z,15.50
2019-03-01T23:37:57.930Z,18.02
2019-03-01T23:40:26.190Z,20.08
2019-03-01T23:42:56.290Z,19.07
2019-03-01T23:45:24.435Z,21.90
2019-03-01T23:47:52.670Z,14.23
2019-03-01T23:50:20.915Z,16.40
2019-03-01T23:52:49.165Z,20.70
2019-03-01T23:55:19.108Z,17.27
2019-03-01T23:57:47.405Z,16.25
